Time;durP1;ratioP1;P1;durP2;ratioP2;P2;SDS_P1;SDS_P2;PMS_P1;PMS_P2;Temp;Humidity;BMP_temperature;BMP_pressure;BME280_temperature;BME280_humidity;BME280_pressure;Samples;Min_cycle;Max_cycle;Signal;HPM_P1;HPM_P2
2021/10/04 00:01:01;;;;;;;13.48;2.30;;;;;;;14.76;73.35;99577.50;4992282;28;20049;-90
2021/10/04 00:03:26;;;;;;;16.48;2.70;;;;;;;14.70;74.11;99583.38;4992258;28;20479;-90
2021/10/04 00:05:51;;;;;;;22.30;2.92;;;;;;;14.68;74.51;99576.41;5009537;28;20026;-90
2021/10/04 00:08:17;;;;;;;11.73;1.92;;;;;;;14.79;73.99;99577.16;4999791;28;20042;-90
2021/10/04 00:10:42;;;;;;;15.75;2.53;;;;;;;14.77;74.40;99574.69;4992311;28;20388;-90
2021/10/04 00:13:07;;;;;;;12.90;2.20;;;;;;;14.85;74.07;99576.59;4992317;28;20076;-90
2021/10/04 00:15:33;;;;;;;14.98;2.08;;;;;;;14.91;73.73;99583.06;5006030;28;20030;-90
2021/10/04 00:18:02;;;;;;;13.35;2.28;;;;;;;14.89;73.14;99583.22;5011741;28;20095;-91
2021/10/04 00:20:27;;;;;;;15.05;2.78;;;;;;;14.80;73.74;99570.91;4998477;28;20480;-90
2021/10/04 00:22:55;;;;;;;7.82;1.45;;;;;;;14.82;73.42;99582.16;4992200;28;20060;-90
2021/10/04 00:25:20;;;;;;;11.80;2.05;;;;;;;14.79;73.09;99579.81;5001666;28;20325;-90
2021/10/04 00:27:46;;;;;;;18.05;3.33;;;;;;;14.80;73.34;99577.03;5011605;28;20032;-90
2021/10/04 00:30:13;;;;;;;13.57;2.00;;;;;;;14.65;71.86;99582.03;4995046;28;20045;-90
2021/10/04 00:32:44;;;;;;;12.65;2.28;;;;;;;14.71;73.01;99585.88;4990574;28;20015;-90
2021/10/04 00:35:13;;;;;;;14.75;2.05;;;;;;;14.65;72.55;99581.16;5007368;28;20030;-90
2021/10/04 00:37:38;;;;;;;9.57;2.15;;;;;;;14.56;72.70;99593.47;5003847;28;20027;-90
2021/10/04 00:40:07;;;;;;;12.23;1.95;;;;;;;14.58;73.27;99588.06;4991967;28;20079;-89
2021/10/04 00:42:33;;;;;;;16.15;2.40;;;;;;;14.51;71.98;99585.13;4991722;28;20026;-90
2021/10/04 00:44:59;;;;;;;21.55;2.22;;;;;;;14.52;73.04;99584.16;5004973;28;20034;-89
2021/10/04 00:47:24;;;;;;;11.23;2.78;;;;;;;14.60;73.57;99579.00;5011174;28;20029;-90
2021/10/04 00:49:49;;;;;;;8.63;1.52;;;;;;;14.62;73.68;99587.59;4999400;28;20034;-90
2021/10/04 00:52:16;;;;;;;15.48;1.80;;;;;;;14.66;73.64;99581.03;4996587;28;20071;-91
2021/10/04 00:54:41;;;;;;;13.90;1.88;;;;;;;14.67;74.14;99582.69;5001575;28;20052;-90
2021/10/04 00:57:07;;;;;;;14.98;1.85;;;;;;;14.67;74.02;99573.91;4992348;28;20396;-90
2021/10/04 00:59:33;;;;;;;13.05;3.22;;;;;;;14.80;73.59;99576.19;4991512;28;20030;-90
2021/10/04 01:01:58;;;;;;;16.17;2.22;;;;;;;14.82;73.89;99585.63;4991262;28;20042;-89
2021/10/04 01:04:27;;;;;;;14.43;2.13;;;;;;;14.83;74.06;99581.16;4994365;28;20134;-90
2021/10/04 01:06:54;;;;;;;15.35;2.90;;;;;;;14.88;73.86;99584.19;4991316;28;20445;-90
2021/10/04 01:09:20;;;;;;;13.73;2.42;;;;;;;14.84;73.73;99583.66;4991481;28;20114;-91
2021/10/04 01:11:45;;;;;;;14.60;1.95;;;;;;;14.94;73.75;99588.03;4992211;28;20121;-90
2021/10/04 01:14:12;;;;;;;14.02;2.13;;;;;;;14.86;72.99;99580.88;4991426;28;20041;-90
2021/10/04 01:16:37;;;;;;;5.97;1.52;;;;;;;14.84;73.60;99581.03;4991251;28;20056;-90
2021/10/04 01:19:03;;;;;;;10.57;1.50;;;;;;;14.88;73.77;99587.66;4998520;28;20026;-90
2021/10/04 01:21:28;;;;;;;14.70;3.08;;;;;;;14.86;74.62;99579.06;5009340;28;20437;-90
2021/10/04 01:23:54;;;;;;;13.25;2.30;;;;;;;14.99;73.96;99580.50;5002893;28;20052;-90
2021/10/04 01:26:20;;;;;;;11.68;1.98;;;;;;;14.95;73.43;99585.25;4990000;28;20026;-90
2021/10/04 01:28:46;;;;;;;14.13;3.28;;;;;;;15.06;73.08;99590.28;5006209;28;20058;-90
2021/10/04 01:31:12;;;;;;;7.53;1.92;;;;;;;15.15;72.92;99591.19;5010619;28;20439;-90
2021/10/04 01:33:37;;;;;;;11.98;2.25;;;;;;;15.12;73.31;99586.19;5006008;28;20026;-90
2021/10/04 01:36:03;;;;;;;12.25;2.00;;;;;;;15.25;72.99;99597.22;4990877;28;20238;-89
2021/10/04 01:38:28;;;;;;;14.60;2.35;;;;;;;15.23;72.52;99607.13;4993182;28;20022;-90
2021/10/04 01:40:54;;;;;;;13.38;1.65;;;;;;;15.24;72.77;99603.50;5010328;28;20108;-90
2021/10/04 01:43:19;;;;;;;14.05;1.95;;;;;;;15.27;72.88;99597.06;5007856;28;20065;-90
2021/10/04 01:45:44;;;;;;;14.23;2.97;;;;;;;15.38;73.04;99598.63;5009107;28;20030;-89
2021/10/04 01:48:10;;;;;;;11.43;1.70;;;;;;;15.41;72.82;99590.38;5010195;28;20468;-90
2021/10/04 01:50:36;;;;;;;15.32;2.63;;;;;;;15.33;73.70;99592.97;4991493;28;20083;-90
2021/10/04 01:53:04;;;;;;;6.55;1.60;;;;;;;15.43;72.93;99586.59;4994691;28;20021;-89
2021/10/04 01:55:29;;;;;;;14.38;2.72;;;;;;;15.44;72.82;99590.06;5010029;28;20101;-89
2021/10/04 01:57:54;;;;;;;11.82;1.58;;;;;;;15.55;72.27;99586.34;4996134;28;20402;-89
2021/10/04 02:00:21;;;;;;;11.43;1.85;;;;;;;15.57;71.57;99584.38;5008186;28;20432;-90
2021/10/04 02:02:50;;;;;;;13.00;2.08;;;;;;;15.50;71.63;99578.88;5009217;28;20121;-89
2021/10/04 02:05:16;;;;;;;13.30;1.77;;;;;;;15.53;71.31;99583.03;5010039;28;20051;-90
2021/10/04 02:07:42;;;;;;;11.30;1.52;;;;;;;15.61;70.50;99588.34;5009599;28;20091;-90
2021/10/04 02:10:11;;;;;;;8.15;1.38;;;;;;;15.54;70.73;99574.09;4991030;28;20468;-89
2021/10/04 02:12:37;;;;;;;12.82;1.88;;;;;;;15.53;70.42;99572.44;4989258;28;20037;-89
2021/10/04 02:15:03;;;;;;;11.25;1.48;;;;;;;15.49;70.86;99563.97;4992123;28;20370;-90
2021/10/04 02:17:31;;;;;;;10.27;1.75;;;;;;;15.43;71.42;99560.13;4990277;28;20392;-90
2021/10/04 02:19:56;;;;;;;8.90;1.35;;;;;;;15.33;71.57;99563.88;5007803;28;20033;-89
2021/10/04 02:22:22;;;;;;;16.88;2.40;;;;;;;15.42;71.74;99555.00;5009774;28;20079;-90
2021/10/04 02:24:48;;;;;;;10.57;1.35;;;;;;;15.32;71.58;99554.28;4993774;28;20034;-89
2021/10/04 02:27:13;;;;;;;7.45;1.58;;;;;;;15.17;71.31;99556.69;4990088;28;20508;-89
2021/10/04 02:29:39;;;;;;;11.23;1.52;;;;;;;15.10;71.67;99555.63;5004349;28;20369;-89
2021/10/04 02:32:05;;;;;;;11.60;1.80;;;;;;;15.12;72.22;99556.28;5008299;28;20495;-89
2021/10/04 02:34:30;;;;;;;16.15;1.95;;;;;;;15.17;72.48;99554.84;5007386;28;20033;-90
2021/10/04 02:36:55;;;;;;;8.93;1.35;;;;;;;15.08;72.60;99556.59;5009632;28;20533;-89
2021/10/04 02:39:21;;;;;;;13.52;1.77;;;;;;;15.00;72.37;99547.78;4998854;28;20033;-89
2021/10/04 02:41:46;;;;;;;7.40;1.17;;;;;;;14.98;72.17;99545.28;4989879;28;20034;-89
2021/10/04 02:44:11;;;;;;;10.38;1.10;;;;;;;14.85;72.14;99556.25;5005080;28;20476;-89
2021/10/04 02:46:37;;;;;;;10.52;1.60;;;;;;;15.01;72.08;99557.38;5006396;28;20040;-89
2021/10/04 02:49:02;;;;;;;10.57;1.50;;;;;;;14.99;71.35;99552.25;5008383;28;20033;-89
2021/10/04 02:51:28;;;;;;;10.48;1.05;;;;;;;14.99;71.70;99554.88;5013105;28;20057;-89
2021/10/04 02:53:53;;;;;;;10.90;1.38;;;;;;;15.11;71.29;99549.38;5004399;28;20081;-91
2021/10/04 02:56:18;;;;;;;8.25;1.25;;;;;;;15.13;71.50;99544.75;4995065;28;20143;-89
2021/10/04 02:58:44;;;;;;;8.27;1.98;;;;;;;15.14;70.91;99555.16;5004645;28;20030;-90
2021/10/04 03:01:09;;;;;;;7.78;1.13;;;;;;;14.94;71.22;99551.88;5008595;28;20042;-90
2021/10/04 03:03:34;;;;;;;8.75;1.10;;;;;;;14.76;71.40;99551.88;4995336;28;20480;-90
2021/10/04 03:06:00;;;;;;;8.50;1.55;;;;;;;14.86;70.62;99559.72;4994626;28;20052;-89
2021/10/04 03:08:25;;;;;;;7.70;1.63;;;;;;;14.92;70.60;99558.28;4996978;28;20037;-90
2021/10/04 03:10:51;;;;;;;6.78;1.83;;;;;;;14.99;70.91;99554.88;5008281;28;20083;-90
2021/10/04 03:13:16;;;;;;;8.65;0.93;;;;;;;14.95;70.63;99550.91;5002813;28;20034;-90
2021/10/04 03:15:42;;;;;;;8.27;1.02;;;;;;;14.86;70.32;99555.28;4994774;28;20026;-90
2021/10/04 03:18:08;;;;;;;11.73;1.10;;;;;;;14.79;71.11;99545.47;5008566;28;20121;-90
2021/10/04 03:20:34;;;;;;;9.95;1.40;;;;;;;14.80;71.16;99549.78;5009237;28;20116;-91
2021/10/04 03:23:00;;;;;;;7.13;1.67;;;;;;;14.78;71.32;99547.28;5007970;28;20109;-90
2021/10/04 03:25:26;;;;;;;5.13;0.63;;;;;;;14.72;70.90;99553.16;4993650;28;20058;-90
2021/10/04 03:27:51;;;;;;;8.02;1.30;;;;;;;14.61;70.97;99558.69;4991906;28;20506;-91
2021/10/04 03:30:16;;;;;;;4.43;0.90;;;;;;;14.62;70.76;99555.88;5006771;28;20026;-91
2021/10/04 03:32:43;;;;;;;7.57;1.10;;;;;;;14.72;70.94;99571.66;4998015;28;20414;-91
2021/10/04 03:35:09;;;;;;;11.15;1.27;;;;;;;14.52;71.52;99557.75;5012821;28;20537;-90
2021/10/04 03:37:36;;;;;;;5.57;0.82;;;;;;;14.60;71.87;99571.06;5008435;28;20027;-90
2021/10/04 03:40:04;;;;;;;9.52;1.08;;;;;;;14.61;71.19;99571.88;4993071;28;20097;-90
2021/10/04 03:42:29;;;;;;;8.00;1.00;;;;;;;14.59;71.20;99582.63;4993180;28;20495;-90
2021/10/04 03:44:54;;;;;;;7.00;0.88;;;;;;;14.72;71.10;99578.78;4993798;28;20025;-90
2021/10/04 03:47:20;;;;;;;8.82;0.90;;;;;;;14.67;71.38;99585.34;5009255;28;20095;-90
2021/10/04 03:49:45;;;;;;;11.35;3.53;;;;;;;14.64;71.84;99577.72;5010959;28;20030;-90
2021/10/04 03:52:11;;;;;;;6.53;1.15;;;;;;;14.71;71.51;99585.03;4999352;28;20113;-89
2021/10/04 03:54:36;;;;;;;7.65;0.98;;;;;;;14.72;71.93;99590.16;4992746;28;20034;-90
2021/10/04 03:57:02;;;;;;;6.63;1.08;;;;;;;14.68;71.09;99592.28;4992552;28;20397;-90
2021/10/04 03:59:27;;;;;;;5.22;0.85;;;;;;;14.77;71.34;99587.06;5009624;28;20064;-90
2021/10/04 04:01:53;;;;;;;7.50;1.48;;;;;;;14.71;70.63;99598.25;5012038;28;20087;-90
2021/10/04 04:04:18;;;;;;;4.38;0.63;;;;;;;14.72;70.60;99598.09;4996536;28;20391;-90
2021/10/04 04:06:43;;;;;;;7.50;1.10;;;;;;;14.77;71.15;99605.56;5001903;28;20018;-90
2021/10/04 04:09:09;;;;;;;2.63;0.60;;;;;;;14.75;70.11;99602.25;5011213;28;20038;-90
2021/10/04 04:11:35;;;;;;;5.10;0.82;;;;;;;14.61;70.93;99614.16;5022943;28;20022;-90
2021/10/04 04:14:00;;;;;;;6.10;1.02;;;;;;;14.62;70.45;99608.72;4999975;28;20038;-90
2021/10/04 04:16:25;;;;;;;2.25;0.40;;;;;;;14.65;69.93;99611.09;4992542;28;20411;-90
2021/10/04 04:18:51;;;;;;;5.38;0.90;;;;;;;14.58;70.42;99615.28;4992089;28;20072;-90
2021/10/04 04:21:17;;;;;;;2.03;0.40;;;;;;;14.57;70.27;99610.16;5000090;28;20029;-90
2021/10/04 04:23:42;;;;;;;5.28;0.70;;;;;;;14.50;70.69;99609.06;5010836;28;20026;-90
2021/10/04 04:26:07;;;;;;;6.85;0.85;;;;;;;14.40;70.85;99611.78;5010692;28;20143;-90
2021/10/04 04:28:33;;;;;;;3.95;0.65;;;;;;;14.45;71.06;99617.44;4998080;28;20076;-90
2021/10/04 04:30:59;;;;;;;5.30;1.08;;;;;;;14.51;69.61;99622.13;4992167;28;20041;-90
2021/10/04 04:33:24;;;;;;;11.82;1.70;;;;;;;14.45;70.68;99618.28;5003445;28;20411;-90
2021/10/04 04:35:50;;;;;;;5.03;0.50;;;;;;;14.28;71.00;99622.53;5004787;28;20475;-90
2021/10/04 04:38:15;;;;;;;3.80;0.68;;;;;;;14.43;71.25;99614.94;4992022;28;20022;-90
2021/10/04 04:40:41;;;;;;;2.33;0.55;;;;;;;14.45;70.73;99620.06;4991978;28;20031;-90
2021/10/04 04:43:06;;;;;;;6.05;0.70;;;;;;;14.45;69.91;99622.72;5000372;28;20030;-90
2021/10/04 04:45:32;;;;;;;4.40;0.80;;;;;;;14.50;70.57;99620.47;5011900;28;20036;-90
2021/10/04 04:47:57;;;;;;;3.85;0.85;;;;;;;14.47;70.49;99621.59;5004101;28;20553;-90
2021/10/04 04:50:22;;;;;;;7.63;0.57;;;;;;;14.52;70.64;99629.06;4995217;28;20069;-90
2021/10/04 04:52:48;;;;;;;3.30;0.60;;;;;;;14.50;70.37;99625.75;5010743;28;20108;-90
2021/10/04 04:55:14;;;;;;;5.25;0.60;;;;;;;14.47;70.29;99629.53;5011494;28;20075;-90
2021/10/04 04:57:40;;;;;;;5.72;0.73;;;;;;;14.42;70.88;99625.66;5011601;28;20126;-90
2021/10/04 05:00:07;;;;;;;3.95;0.60;;;;;;;14.38;70.91;99638.31;4996460;28;20511;-90
2021/10/04 05:02:36;;;;;;;3.03;0.38;;;;;;;14.36;70.97;99634.19;4993834;28;20645;-90
2021/10/04 05:05:03;;;;;;;3.00;0.65;;;;;;;14.29;70.79;99634.75;5009713;28;20034;-90
2021/10/04 05:07:28;;;;;;;1.83;0.82;;;;;;;14.27;71.51;99635.88;5010215;28;21119;-90
2021/10/04 05:09:53;;;;;;;7.68;0.70;;;;;;;14.26;70.97;99636.88;5011506;28;20105;-90
2021/10/04 05:12:19;;;;;;;2.22;0.60;;;;;;;14.27;70.91;99647.25;5005029;28;20399;-90
2021/10/04 05:14:44;;;;;;;5.18;0.73;;;;;;;14.24;71.23;99644.94;4992671;28;20388;-91
2021/10/04 05:17:09;;;;;;;3.13;0.50;;;;;;;14.26;71.41;99647.44;4991558;28;20427;-90
2021/10/04 05:19:35;;;;;;;3.45;0.40;;;;;;;14.30;71.72;99648.81;4991500;28;20023;-90
2021/10/04 05:22:00;;;;;;;4.60;0.60;;;;;;;14.44;70.77;99645.66;4993445;28;20428;-90
2021/10/04 05:24:25;;;;;;;1.20;0.30;;;;;;;14.35;71.17;99646.53;5010509;28;20484;-90
2021/10/04 05:26:51;;;;;;;5.18;0.70;;;;;;;14.38;71.16;99638.31;5005453;28;20026;-91
2021/10/04 05:29:16;;;;;;;1.88;0.40;;;;;;;14.37;70.80;99646.38;4990059;28;20031;-90
2021/10/04 05:31:42;;;;;;;3.35;0.60;;;;;;;14.38;70.49;99650.72;4991287;28;20034;-90
2021/10/04 05:34:07;;;;;;;4.97;0.77;;;;;;;14.44;70.34;99642.19;5000118;28;20123;-89
2021/10/04 05:36:32;;;;;;;3.83;0.80;;;;;;;14.40;70.05;99644.28;4995560;28;20070;-90
2021/10/04 05:39:00;;;;;;;3.60;0.45;;;;;;;14.37;70.29;99643.75;5006994;28;20018;-90
2021/10/04 05:41:25;;;;;;;7.28;0.98;;;;;;;14.17;70.42;99645.66;5003312;28;20033;-90
2021/10/04 05:43:50;;;;;;;6.18;0.82;;;;;;;14.31;70.93;99647.81;4994518;28;20035;-90
2021/10/04 05:46:16;;;;;;;3.28;0.45;;;;;;;14.28;70.24;99646.28;4989931;28;20041;-91
2021/10/04 05:48:41;;;;;;;4.78;0.70;;;;;;;14.27;70.87;99647.25;4996243;28;20025;-91
2021/10/04 05:51:09;;;;;;;5.15;0.63;;;;;;;14.11;70.35;99639.16;4990199;28;20056;-91
2021/10/04 05:53:35;;;;;;;7.47;0.90;;;;;;;14.20;70.23;99646.22;5002957;28;20018;-90
2021/10/04 05:56:01;;;;;;;5.35;0.98;;;;;;;14.28;70.10;99654.22;5012213;28;20702;-90
2021/10/04 05:58:27;;;;;;;5.20;0.60;;;;;;;14.23;70.64;99651.19;5001675;28;20263;-91
2021/10/04 06:00:52;;;;;;;4.22;0.65;;;;;;;14.19;70.14;99659.53;4990909;28;20062;-93
2021/10/04 06:03:17;;;;;;;12.25;1.17;;;;;;;14.15;70.67;99653.72;5000165;28;20083;-93
2021/10/04 06:05:43;;;;;;;10.40;0.75;;;;;;;13.99;70.90;99653.50;5000144;28;20034;-90
2021/10/04 06:08:08;;;;;;;9.52;1.60;;;;;;;14.05;71.19;99659.03;5002788;28;20053;-89
2021/10/04 06:10:34;;;;;;;5.15;0.80;;;;;;;14.15;70.68;99664.28;5009088;28;20059;-91
2021/10/04 06:13:00;;;;;;;5.93;0.70;;;;;;;14.05;70.28;99658.22;4990166;28;20445;-91
2021/10/04 06:15:25;;;;;;;4.93;0.70;;;;;;;14.21;70.72;99668.16;4990313;28;20044;-92
2021/10/04 06:17:51;;;;;;;4.70;0.68;;;;;;;14.17;70.77;99672.88;4990332;28;20058;-91
2021/10/04 06:20:16;;;;;;;3.55;0.70;;;;;;;14.15;70.85;99669.56;4991548;28;20442;-93
2021/10/04 06:22:42;;;;;;;7.85;0.60;;;;;;;14.19;71.05;99665.66;4989614;28;20045;-91
2021/10/04 06:25:11;;;;;;;3.78;0.90;;;;;;;14.16;70.81;99667.75;5007926;28;20535;-92
2021/10/04 06:27:36;;;;;;;3.50;0.90;;;;;;;14.22;70.66;99665.38;5004833;28;20376;-92
2021/10/04 06:30:03;;;;;;;2.55;0.57;;;;;;;14.21;71.08;99668.16;4998388;28;20079;-91
2021/10/04 06:32:28;;;;;;;6.78;0.63;;;;;;;14.20;70.84;99663.88;5009151;28;20071;-91
2021/10/04 06:34:53;;;;;;;6.97;0.88;;;;;;;14.23;71.02;99664.38;5009759;28;20030;-91
2021/10/04 06:37:19;;;;;;;3.13;0.60;;;;;;;14.22;70.70;99668.00;4992134;28;20075;-91
2021/10/04 06:39:44;;;;;;;3.20;1.02;;;;;;;14.22;71.04;99670.66;4997265;28;20021;-91
2021/10/04 06:42:10;;;;;;;3.80;0.70;;;;;;;14.21;71.23;99682.19;5008194;28;20057;-91
2021/10/04 06:44:35;;;;;;;4.43;0.95;;;;;;;14.26;70.89;99677.31;5001801;28;20026;-91
2021/10/04 06:47:03;;;;;;;3.10;0.60;;;;;;;14.27;70.69;99681.59;5010249;28;20026;-90
2021/10/04 06:49:28;;;;;;;5.05;1.05;;;;;;;14.07;71.31;99682.66;5018486;28;20018;-90
2021/10/04 06:51:54;;;;;;;7.25;1.08;;;;;;;14.25;70.79;99680.91;5015787;28;20030;-90
2021/10/04 06:54:19;;;;;;;4.28;0.82;;;;;;;14.11;71.24;99681.38;5003656;28;20032;-91
2021/10/04 06:56:44;;;;;;;3.65;1.00;;;;;;;14.10;71.21;99685.03;5001938;28;20026;-91
2021/10/04 06:59:10;;;;;;;5.43;1.20;;;;;;;14.10;71.04;99682.38;5006155;28;20065;-91
2021/10/04 07:01:35;;;;;;;2.40;0.65;;;;;;;14.06;71.56;99675.72;5035932;28;20407;-91
2021/10/04 07:04:02;;;;;;;7.85;1.10;;;;;;;14.17;71.35;99686.09;5096317;28;20038;-91
2021/10/04 07:06:28;;;;;;;3.25;0.82;;;;;;;14.15;70.71;99690.69;5027009;28;20521;-90
2021/10/04 07:08:53;;;;;;;9.10;1.00;;;;;;;14.22;71.23;99683.84;4995552;28;20053;-91
2021/10/04 07:11:20;;;;;;;4.80;0.88;;;;;;;14.23;70.72;99684.69;5002116;28;20481;-90
2021/10/04 07:13:45;;;;;;;3.80;0.77;;;;;;;14.27;70.96;99683.41;5002363;28;20037;-90
2021/10/04 07:16:12;;;;;;;3.63;0.50;;;;;;;14.47;71.42;99690.28;4993226;28;20022;-90
2021/10/04 07:18:39;;;;;;;5.55;0.98;;;;;;;15.19;70.78;99687.75;4994571;28;20018;-90
2021/10/04 07:21:04;;;;;;;4.97;0.90;;;;;;;16.15;68.98;99686.97;4992548;28;20381;-90
2021/10/04 07:23:30;;;;;;;4.22;0.65;;;;;;;16.37;67.01;99690.03;5002971;28;20040;-90
2021/10/04 07:25:55;;;;;;;9.77;1.27;;;;;;;16.76;66.58;99705.41;5014269;28;20026;-90
2021/10/04 07:28:20;;;;;;;5.45;0.80;;;;;;;16.84;61.94;99700.16;5027354;28;20030;-90
2021/10/04 07:30:48;;;;;;;4.25;0.50;;;;;;;17.04;64.63;99708.66;5024730;28;20061;-90
2021/10/04 07:33:14;;;;;;;3.90;0.80;;;;;;;17.18;63.33;99717.78;5016194;28;20498;-90
2021/10/04 07:35:40;;;;;;;5.30;0.90;;;;;;;17.39;62.89;99714.66;5013605;28;20093;-90
2021/10/04 07:38:05;;;;;;;2.95;0.73;;;;;;;17.58;62.40;99710.84;5023622;28;20054;-90
2021/10/04 07:40:31;;;;;;;2.20;0.47;;;;;;;17.62;61.04;99717.50;5008353;28;20033;-90
2021/10/04 07:42:56;;;;;;;5.35;0.60;;;;;;;18.28;59.87;99714.75;5017625;28;20024;-90
2021/10/04 07:45:22;;;;;;;4.13;0.65;;;;;;;19.42;58.90;99715.97;5018629;28;20026;-90
2021/10/04 07:47:47;;;;;;;5.22;0.82;;;;;;;19.70;56.03;99715.41;5017214;28;20505;-90
2021/10/04 07:50:16;;;;;;;5.28;0.65;;;;;;;20.51;56.09;99720.91;5011386;28;20027;-90
2021/10/04 07:52:43;;;;;;;4.38;0.70;;;;;;;21.35;54.62;99712.44;5009053;28;20056;-90
2021/10/04 07:55:09;;;;;;;3.45;0.55;;;;;;;21.91;51.24;99719.69;5030107;28;20018;-90
2021/10/04 07:57:35;;;;;;;2.53;0.70;;;;;;;22.10;50.26;99727.00;5022691;28;20030;-90
2021/10/04 08:00:01;;;;;;;5.68;1.02;;;;;;;22.86;49.09;99728.00;5026590;28;20022;-90
2021/10/04 08:02:26;;;;;;;6.32;0.43;;;;;;;22.99;48.41;99727.25;5026348;28;20026;-91
2021/10/04 08:04:52;;;;;;;3.25;0.63;;;;;;;23.62;45.50;99726.94;5014812;28;20165;-91
2021/10/04 08:07:17;;;;;;;3.42;0.82;;;;;;;22.96;46.88;99731.13;5008373;28;20036;-90
2021/10/04 08:09:42;;;;;;;7.20;0.95;;;;;;;22.83;46.20;99723.91;5010267;28;20021;-90
2021/10/04 08:12:08;;;;;;;3.20;0.60;;;;;;;22.53;47.21;99726.88;5007745;28;20415;-91
2021/10/04 08:14:34;;;;;;;3.08;0.70;;;;;;;23.35;45.66;99740.31;5010499;28;20048;-90
2021/10/04 08:17:00;;;;;;;3.55;0.73;;;;;;;24.59;43.86;99729.94;5018597;28;20032;-90
2021/10/04 08:19:26;;;;;;;4.07;0.70;;;;;;;24.20;42.97;99737.03;5013687;28;20022;-90
2021/10/04 08:21:51;;;;;;;3.35;0.70;;;;;;;24.78;43.31;99734.34;5009379;28;20060;-90
2021/10/04 08:24:16;;;;;;;3.13;0.77;;;;;;;25.46;42.98;99732.97;5010564;28;20034;-91
2021/10/04 08:26:42;;;;;;;3.80;0.80;;;;;;;25.10;42.81;99742.50;5010742;28;20411;-90
2021/10/04 08:29:07;;;;;;;4.22;0.88;;;;;;;25.08;43.16;99744.53;5025129;28;20029;-91
2021/10/04 08:31:33;;;;;;;4.32;0.75;;;;;;;26.26;41.72;99751.94;5011691;28;20144;-91
2021/10/04 08:34:03;;;;;;;5.57;0.82;;;;;;;26.38;39.31;99751.19;5011560;28;20026;-90
2021/10/04 08:36:29;;;;;;;2.35;0.50;;;;;;;25.62;41.95;99747.75;5010969;28;20035;-90
2021/10/04 08:38:55;;;;;;;4.13;0.82;;;;;;;25.40;40.51;99756.16;5011106;28;20026;-90
2021/10/04 08:41:22;;;;;;;6.10;0.90;;;;;;;25.44;42.14;99753.88;4995516;28;20034;-90
2021/10/04 08:43:49;;;;;;;4.10;0.80;;;;;;;27.26;40.28;99753.44;4997879;28;20037;-90
2021/10/04 08:46:15;;;;;;;6.30;0.80;;;;;;;26.23;41.60;99762.31;5002324;28;20037;-90
2021/10/04 08:48:41;;;;;;;6.47;1.52;;;;;;;25.45;41.86;99756.31;5030930;28;20051;-90
2021/10/04 08:51:08;;;;;;;4.07;0.80;;;;;;;26.66;39.78;99756.09;5024007;28;20042;-90
2021/10/04 08:53:35;;;;;;;13.85;2.13;;;;;;;26.85;40.02;99757.69;5028600;28;20022;-90
2021/10/04 08:56:00;;;;;;;3.95;1.02;;;;;;;27.46;39.15;99750.44;5009600;28;20100;-90
2021/10/04 08:58:26;;;;;;;6.40;1.13;;;;;;;28.00;37.32;99760.38;5020572;28;20101;-90
2021/10/04 09:00:51;;;;;;;3.53;0.73;;;;;;;27.99;37.94;99759.56;5009543;28;20057;-90
2021/10/04 09:03:17;;;;;;;2.90;0.75;;;;;;;28.66;36.27;99755.63;5010085;28;20057;-90
2021/10/04 09:05:45;;;;;;;5.78;1.25;;;;;;;28.62;37.38;99763.38;5008997;28;20392;-90
2021/10/04 09:08:14;;;;;;;5.80;0.93;;;;;;;26.59;37.31;99766.09;5004231;28;20042;-90
2021/10/04 09:10:43;;;;;;;5.82;0.82;;;;;;;26.77;40.00;99762.56;4991179;28;20034;-91
2021/10/04 09:13:11;;;;;;;5.80;1.13;;;;;;;25.94;40.60;99770.03;4991682;28;20034;-90
2021/10/04 09:15:45;;;;;;;3.67;1.10;;;;;;;26.34;40.41;99774.22;4992862;28;20422;-90
2021/10/04 09:18:19;;;;;;;7.72;1.10;;;;;;;26.81;39.70;99769.97;5010691;28;20026;-90
2021/10/04 09:21:01;;;;;;;4.25;0.90;;;;;;;26.82;39.67;99770.81;5008407;28;20095;-90
2021/10/04 09:23:34;;;;;;;5.45;1.10;;;;;;;26.90;38.73;99767.78;5008954;28;20026;-90
2021/10/04 09:26:01;;;;;;;5.07;0.75;;;;;;;27.30;37.56;99772.66;4990936;28;20022;-90
2021/10/04 09:28:31;;;;;;;7.70;1.35;;;;;;;25.13;40.98;99774.28;4992347;28;20060;-91
2021/10/04 09:31:19;;;;;;;5.05;0.90;;;;;;;25.71;42.09;99787.59;5009548;28;20229;-89
2021/10/04 09:34:11;;;;;;;4.93;1.05;;;;;;;26.41;39.99;99775.78;5006886;28;20027;-89
2021/10/04 09:36:42;;;;;;;7.70;0.95;;;;;;;24.67;41.96;99772.63;4990725;28;20031;-90
2021/10/04 09:39:08;;;;;;;7.70;1.10;;;;;;;25.71;40.83;99770.59;4995147;28;20502;-89
2021/10/04 09:41:34;;;;;;;3.28;0.80;;;;;;;26.15;40.75;99762.63;5009657;28;20040;-89
2021/10/04 09:44:03;;;;;;;6.28;1.00;;;;;;;26.47;39.52;99750.66;5005980;28;20022;-90
2021/10/04 09:46:29;;;;;;;5.93;1.40;;;;;;;27.36;37.33;99743.97;4990692;28;20087;-89
2021/10/04 09:49:02;;;;;;;9.82;1.33;;;;;;;27.44;38.22;99746.31;4993224;28;20455;-89
2021/10/04 09:51:28;;;;;;;10.45;2.05;;;;;;;26.72;39.04;99760.56;5009303;28;20026;-89
2021/10/04 09:54:10;;;;;;;5.35;0.90;;;;;;;26.81;38.41;99753.00;5008224;28;20026;-90
2021/10/04 09:56:36;;;;;;;5.10;0.73;;;;;;;27.08;39.42;99758.84;5006141;28;20028;-90
2021/10/04 09:59:02;;;;;;;6.85;1.30;;;;;;;26.86;38.34;99750.44;5007656;28;20114;-89
2021/10/04 10:01:27;;;;;;;3.58;0.80;;;;;;;26.11;39.79;99754.16;4990307;28;20042;-90
2021/10/04 10:03:52;;;;;;;5.10;1.10;;;;;;;26.22;40.84;99750.72;4990903;28;20110;-90
2021/10/04 10:06:18;;;;;;;8.27;1.13;;;;;;;26.20;40.03;99760.06;4990535;28;20027;-90
2021/10/04 10:08:44;;;;;;;4.97;0.90;;;;;;;24.48;42.89;99750.97;4996287;28;20071;-89
2021/10/04 10:11:13;;;;;;;11.65;1.48;;;;;;;25.07;41.39;99748.28;5004625;28;20083;-91
2021/10/04 10:13:40;;;;;;;10.05;1.38;;;;;;;24.75;41.51;99748.22;4999321;28;20044;-91
2021/10/04 10:16:21;;;;;;;10.02;2.40;;;;;;;24.66;42.70;99738.75;5007748;28;20117;-91
2021/10/04 10:18:52;;;;;;;9.05;1.08;;;;;;;25.98;41.17;99747.03;5004458;28;20162;-92
2021/10/04 10:21:24;;;;;;;7.53;0.82;;;;;;;26.55;38.74;99746.03;4993270;28;20491;-90
2021/10/04 10:23:54;;;;;;;5.10;1.08;;;;;;;26.65;38.89;99743.66;4992582;28;20036;-90
2021/10/04 10:26:32;;;;;;;3.75;0.77;;;;;;;26.03;39.28;99752.59;4998348;28;20022;-90
2021/10/04 10:29:13;;;;;;;5.70;0.90;;;;;;;26.57;39.10;99752.00;5009671;28;20437;-91
2021/10/04 10:31:50;;;;;;;7.93;0.98;;;;;;;27.16;37.81;99745.06;4999676;28;20394;-91
2021/10/04 10:34:34;;;;;;;7.38;1.30;;;;;;;27.82;36.94;99739.69;5008746;28;20026;-91
2021/10/04 10:37:13;;;;;;;7.13;1.05;;;;;;;27.54;36.35;99754.66;5008129;28;20097;-90
2021/10/04 10:39:47;;;;;;;5.82;1.00;;;;;;;26.73;38.91;99747.91;5000833;28;20556;-90
2021/10/04 10:42:38;;;;;;;3.17;0.68;;;;;;;27.20;39.71;99751.63;5001144;28;20063;-91
2021/10/04 10:45:04;;;;;;;5.95;0.90;;;;;;;27.04;36.58;99746.88;5008459;28;20063;-91
2021/10/04 10:47:33;;;;;;;5.05;0.93;;;;;;;26.89;38.45;99755.38;5015728;28;20121;-90
2021/10/04 10:50:05;;;;;;;8.02;1.00;;;;;;;26.11;38.57;99751.47;5013484;28;20077;-90
2021/10/04 10:52:33;;;;;;;5.07;0.90;;;;;;;25.28;39.97;99755.22;5004190;28;20034;-92
2021/10/04 10:55:00;;;;;;;5.97;0.80;;;;;;;25.85;39.29;99752.50;5016604;28;20034;-91
2021/10/04 10:58:00;;;;;;;4.25;0.70;;;;;;;24.92;40.55;99757.44;5015535;28;20418;-92
2021/10/04 11:00:49;;;;;;;7.82;1.73;;;;;;;23.55;41.51;99753.72;4995708;28;20031;-91
2021/10/04 11:03:27;;;;;;;7.47;0.98;;;;;;;24.28;41.33;99750.19;5016851;28;20049;-92
2021/10/04 11:06:01;;;;;;;2.90;0.80;;;;;;;24.22;41.04;99767.13;5009916;28;20485;-91
2021/10/04 11:08:29;;;;;;;6.35;1.50;;;;;;;23.32;43.72;99760.31;5009067;28;20050;-93
2021/10/04 11:10:57;;;;;;;6.85;1.10;;;;;;;23.35;43.02;99761.75;5009847;28;20030;-93
2021/10/04 11:13:42;;;;;;;8.70;1.52;;;;;;;23.35;44.17;99767.91;5007174;28;20030;-92
2021/10/04 11:16:07;;;;;;;8.13;1.13;;;;;;;22.28;44.32;99763.16;4999228;28;20019;-91
2021/10/04 11:18:37;;;;;;;6.05;1.67;;;;;;;22.64;44.54;99770.13;5006013;28;20053;-91
2021/10/04 11:21:05;;;;;;;5.35;1.50;;;;;;;22.48;44.89;99761.41;5008859;28;20064;-91
2021/10/04 11:23:31;;;;;;;9.90;1.55;;;;;;;22.67;44.88;99759.00;4993392;28;20033;-91
2021/10/04 11:25:57;;;;;;;8.35;1.63;;;;;;;22.21;46.65;99780.97;4993463;28;20026;-91
2021/10/04 11:28:37;;;;;;;4.95;1.35;;;;;;;22.54;46.18;99768.63;4999913;28;20038;-91
2021/10/04 11:31:10;;;;;;;4.90;1.05;;;;;;;22.36;46.50;99768.34;4990295;28;20030;-91